M V Monarch — ZGBV3 — position and weather

sailwx.info

Track history (hours):
 
Tides and Currents Weather Stations Pressure Air Temp Water Temp Dewpoint Dewpoint Depression Visibility Wind Speed Wind Dir Waves Ship Positions

M V Monarch

Last reported at 2015-Jul-07 10:32 UTC. Time now 2015-Jul-30 14:07 UTC.
Position N 25°46' W 080°07'.
Warning: this ship's position is 23 days out of date.

Length 46 m; draft 2.6 m.

Type: Pleasure craft. MMSI: 319927000.

Date/timePositionNaut miles runAvg speedWind from/ knotsBaromVisibWave heightAir tempDewpointWater temp
2015-Jul-07 10:32N 25°46' W 080°07'6 6.1
2015-Jul-07 09:33N 25°51' W 080°04'1110.2
2015-Jul-07 08:29N 25°40' W 080°02'6 6.8
2015-Jul-07 07:33N 25°46' W 080°02'19 9.2
2015-Jul-07 05:31N 25°49' W 079°41'  
2015-Jun-30 15:03N 25°49' W 078°27'1314.0
2015-Jun-30 14:06N 25°48' W 078°42'5113.6
2015-Jun-30 10:22N 25°49' W 079°38'1214.4
2015-Jun-30 09:33N 25°48' W 079°51'1414.3
2015-Jun-30 08:32N 25°46' W 080°07'  
Track history (hours):
 
Tides and Currents Weather Stations Pressure Air Temp Water Temp Dewpoint Dewpoint Depression Visibility Wind Speed Wind Dir Waves Ship Positions

M V Monarch

Last reported at 2015-Jul-07 10:32 UTC. Time now 2015-Jul-30 14:07 UTC.
Position N 25°46' W 080°07'.
Warning: this ship's position is 23 days out of date.

Length 46 m; draft 2.6 m.

Type: Pleasure craft. MMSI: 319927000.

Date/timePositionNaut miles runAvg speedWind from/ knotsBaromVisibWave heightAir tempDewpointWater temp
2015-Jul-07 10:32N 25°46' W 080°07'6 6.1
2015-Jul-07 09:33N 25°51' W 080°04'1110.2
2015-Jul-07 08:29N 25°40' W 080°02'6 6.8
2015-Jul-07 07:33N 25°46' W 080°02'19 9.2
2015-Jul-07 05:31N 25°49' W 079°41'  
2015-Jun-30 15:03N 25°49' W 078°27'1314.0
2015-Jun-30 14:06N 25°48' W 078°42'5113.6
2015-Jun-30 10:22N 25°49' W 079°38'1214.4
2015-Jun-30 09:33N 25°48' W 079°51'1414.3
2015-Jun-30 08:32N 25°46' W 080°07'  

Dump ship's entire track history